Bingham, Nebraska
Current Conditions -  °F | °C
As of 10:53 AM on Sunday 25 Jan 2015 (Local Time) from KAIA Reporting Station
Few Clouds Few Clouds  
Wind Chill: 34°   Ceiling: Unl
Heat Index: 43°   Visibility: 10mi
Dew Point: 31°   Wind: 20mph
Humidity: 62%   Direction: 290°WNW
Pressure: 30.08"   Gusts: NA
Location:  42.02°N, 102.09°W
Report Text: KAIA 251753Z AUTO 29017KT 10SM FEW100 06/M01 A3008 RMK AO2 SLP195 T00611006 10061 21017 50001
Loading
Personal Weather Stations






























Interactive Weather Map New forecast layout! Learn more

10-Day Weather Forecast

Advertisements
Track Severe Weather on mobile